createdAt,value
2022-11-04T00:01:46.693Z,100715.13
2022-11-04T00:04:15.769Z,100721.05
2022-11-04T00:06:43.726Z,100699.86
2022-11-04T00:09:13.578Z,100721.90
2022-11-04T00:12:24.817Z,100704.14
2022-11-04T00:14:52.615Z,100723.80
2022-11-04T00:17:20.490Z,100725.98
2022-11-04T00:20:13.238Z,100725.33
2022-11-04T00:23:01.093Z,100705.32
2022-11-04T00:25:47.271Z,100711.86
2022-11-04T00:28:35.398Z,100704.80
2022-11-04T00:31:23.678Z,100713.07
2022-11-04T00:33:52.485Z,100713.73
2022-11-04T00:36:20.330Z,100704.34
2022-11-04T00:38:48.150Z,100697.64
2022-11-04T00:41:28.426Z,100707.41
2022-11-04T00:44:01.222Z,100706.92
2022-11-04T00:46:30.098Z,100704.90
2022-11-04T00:48:57.915Z,100705.26
2022-11-04T00:51:25.721Z,100719.51
2022-11-04T00:53:53.569Z,100723.56
2022-11-04T00:56:21.348Z,100725.23
2022-11-04T00:58:50.726Z,100724.28
2022-11-04T01:01:19.035Z,100731.97
2022-11-04T01:03:51.037Z,100729.13
2022-11-04T01:06:19.176Z,100724.61
2022-11-04T01:08:46.969Z,100724.97
2022-11-04T01:11:14.851Z,100719.61
2022-11-04T01:13:42.840Z,100727.66
2022-11-04T01:16:11.592Z,100735.89
2022-11-04T01:18:39.504Z,100739.59
2022-11-04T01:21:08.057Z,100735.08
2022-11-04T01:23:36.006Z,100736.38
2022-11-04T01:26:07.482Z,100738.54
2022-11-04T01:28:35.306Z,100724.28
2022-11-04T01:31:20.174Z,100727.59
2022-11-04T01:33:49.025Z,100725.92
2022-11-04T01:36:17.098Z,100730.43
2022-11-04T01:38:45.117Z,100720.36
2022-11-04T01:41:26.660Z,100733.60
2022-11-04T01:44:05.364Z,100724.41
2022-11-04T01:46:47.700Z,100728.80
2022-11-04T01:49:37.895Z,100740.53
2022-11-04T01:52:14.617Z,100732.46
2022-11-04T01:54:42.646Z,100732.13
2022-11-04T01:57:14.882Z,100747.56
2022-11-04T01:59:43.007Z,100750.09
2022-11-04T02:02:10.997Z,100754.95
2022-11-04T02:04:39.433Z,100741.87
2022-11-04T02:07:08.704Z,100752.44
2022-11-04T02:09:37.341Z,100744.27
2022-11-04T02:12:23.776Z,100740.08
2022-11-04T02:14:51.610Z,100732.69
2022-11-04T02:17:19.273Z,100728.99
2022-11-04T02:20:17.635Z,100736.91
2022-11-04T02:23:00.576Z,100736.09
2022-11-04T02:25:46.999Z,100741.48
2022-11-04T02:28:26.836Z,100742.30
2022-11-04T02:30:58.095Z,100725.49
2022-11-04T02:33:51.827Z,100724.68
2022-11-04T02:36:50.269Z,100723.86
2022-11-04T02:39:32.121Z,100726.57
2022-11-04T02:42:28.955Z,100723.08
2022-11-04T02:45:09.762Z,100718.92
2022-11-04T02:47:38.196Z,100723.08
2022-11-04T02:50:16.448Z,100724.61
2022-11-04T02:53:01.462Z,100721.84
2022-11-04T02:55:56.413Z,100718.14
2022-11-04T02:58:30.980Z,100717.19
2022-11-04T03:00:58.991Z,100723.08
2022-11-04T03:03:28.160Z,100727.33
2022-11-04T03:05:56.401Z,100721.34
2022-11-04T03:08:39.294Z,100720.85
2022-11-04T03:11:13.229Z,100723.24
2022-11-04T03:14:00.375Z,100723.24
2022-11-04T03:16:37.567Z,100727.03
2022-11-04T03:19:08.144Z,100730.23
2022-11-04T03:21:38.527Z,100724.87
2022-11-04T03:24:06.563Z,100717.16
2022-11-04T03:26:43.250Z,100700.05
2022-11-04T03:29:32.550Z,100705.48
2022-11-04T03:32:05.771Z,100704.99
2022-11-04T03:34:33.639Z,100713.04
2022-11-04T03:37:01.380Z,100707.71
2022-11-04T03:39:29.133Z,100706.86
2022-11-04T03:41:58.217Z,100698.88
2022-11-04T03:44:26.192Z,100714.09
2022-11-04T03:46:54.966Z,100717.26
2022-11-04T03:49:23.662Z,100727.52
2022-11-04T03:51:54.326Z,100742.92
2022-11-04T03:54:22.141Z,100748.16
2022-11-04T03:57:17.952Z,100752.37
2022-11-04T03:59:45.541Z,100747.04
2022-11-04T04:02:57.165Z,100731.28
2022-11-04T04:05:32.249Z,100715.00
2022-11-04T04:08:12.088Z,100693.06
2022-11-04T04:11:17.475Z,100665.27
2022-11-04T04:14:06.392Z,100660.40
2022-11-04T04:16:36.209Z,100655.16
2022-11-04T04:19:22.194Z,100650.78
2022-11-04T04:22:02.652Z,100636.23
2022-11-04T04:24:53.285Z,100631.69
2022-11-04T04:27:33.620Z,100639.08
2022-11-04T04:30:19.949Z,100644.64
2022-11-04T04:32:53.164Z,100655.52
2022-11-04T04:35:43.754Z,100669.65
2022-11-04T04:38:46.397Z,100667.63
2022-11-04T04:41:51.117Z,100671.48
2022-11-04T04:44:44.997Z,100680.90
2022-11-04T04:47:21.060Z,100698.13
2022-11-04T04:49:55.731Z,100698.45
2022-11-04T04:52:23.728Z,100695.61
2022-11-04T04:54:51.522Z,100716.05
2022-11-04T04:57:19.305Z,100711.73
2022-11-04T04:59:47.046Z,100715.91
2022-11-04T05:02:14.980Z,100709.54
2022-11-04T05:04:42.876Z,100698.00
2022-11-04T05:07:11.217Z,100698.00
2022-11-04T05:09:39.028Z,100690.45
2022-11-04T05:12:07.045Z,100672.52
2022-11-04T05:14:34.801Z,100665.30
2022-11-04T05:17:02.586Z,100661.15
2022-11-04T05:19:30.362Z,100649.73
2022-11-04T05:21:58.170Z,100636.70
2022-11-04T05:24:25.964Z,100640.84
2022-11-04T05:26:53.790Z,100644.67
2022-11-04T05:29:21.602Z,100639.11
2022-11-04T05:31:49.463Z,100644.96
2022-11-04T05:34:17.238Z,100651.86
2022-11-04T05:36:45.022Z,100663.24
2022-11-04T05:39:14.388Z,100661.73
2022-11-04T05:41:42.262Z,100653.17
2022-11-04T05:44:10.778Z,100656.73
2022-11-04T05:46:38.580Z,100658.37
2022-11-04T05:49:06.682Z,100671.64
2022-11-04T05:51:34.604Z,100673.18
2022-11-04T05:54:02.867Z,100686.59
2022-11-04T05:56:30.697Z,100689.92
2022-11-04T05:58:58.476Z,100685.90
2022-11-04T06:01:30.273Z,100693.45
2022-11-04T06:03:58.711Z,100693.95
2022-11-04T06:06:27.064Z,100694.11
2022-11-04T06:08:55.115Z,100692.08
2022-11-04T06:11:23.128Z,100692.08
2022-11-04T06:13:51.076Z,100688.05
2022-11-04T06:16:18.837Z,100688.55
2022-11-04T06:18:46.695Z,100682.14
2022-11-04T06:21:14.416Z,100676.81
2022-11-04T06:23:45.527Z,100674.42
2022-11-04T06:26:13.681Z,100662.69
2022-11-04T06:28:42.060Z,100664.22
2022-11-04T06:31:10.626Z,100668.57
2022-11-04T06:33:38.389Z,100664.78
2022-11-04T06:36:07.377Z,100657.87
2022-11-04T06:38:36.456Z,100663.93
2022-11-04T06:43:33.297Z,100667.43
2022-11-04T06:46:02.457Z,100662.20
2022-11-04T06:48:31.873Z,100668.41
2022-11-04T06:51:00.516Z,100664.71
2022-11-04T06:53:28.874Z,100661.87
2022-11-04T06:56:03.163Z,100652.95
2022-11-04T06:58:31.042Z,100661.05
2022-11-04T07:00:58.921Z,100651.63
2022-11-04T07:03:26.715Z,100656.99
2022-11-04T07:05:54.572Z,100644.41
2022-11-04T07:08:22.363Z,100637.37
2022-11-04T07:10:50.081Z,100644.90
2022-11-04T07:13:18.826Z,100635.65
2022-11-04T07:15:46.776Z,100639.02
2022-11-04T07:18:14.532Z,100628.78
2022-11-04T07:20:42.326Z,100621.20
2022-11-04T07:23:10.044Z,100624.59
2022-11-04T07:25:37.873Z,100630.09
2022-11-04T07:28:06.848Z,100623.25
2022-11-04T07:30:34.655Z,100617.11
2022-11-04T07:33:02.431Z,100626.36
2022-11-04T07:35:30.186Z,100630.88
2022-11-04T07:37:57.930Z,100628.35
2022-11-04T07:40:25.684Z,100636.56
2022-11-04T07:42:53.417Z,100636.20
2022-11-04T07:45:21.214Z,100632.18
2022-11-04T07:47:49.015Z,100635.16
2022-11-04T07:50:16.805Z,100633.13
2022-11-04T07:52:44.681Z,100633.00
2022-11-04T07:55:15.053Z,100628.13
2022-11-04T07:57:42.810Z,100632.31
2022-11-04T08:00:11.355Z,100634.80
2022-11-04T08:02:39.277Z,100632.12
2022-11-04T08:05:07.671Z,100626.52
2022-11-04T08:07:35.504Z,100628.19
2022-11-04T08:10:03.769Z,100625.84
2022-11-04T08:12:33.413Z,100634.86
2022-11-04T08:15:01.342Z,100635.71
2022-11-04T08:17:29.119Z,100630.97
2022-11-04T08:19:56.991Z,100635.16
2022-11-04T08:22:27.616Z,100636.10
2022-11-04T08:24:59.643Z,100638.26
2022-11-04T08:27:27.471Z,100655.03
2022-11-04T08:29:55.232Z,100660.76
2022-11-04T08:32:23.043Z,100661.57
2022-11-04T08:34:50.927Z,100669.29
2022-11-04T08:37:19.463Z,100667.39
2022-11-04T08:39:47.420Z,100675.60
2022-11-04T08:42:15.196Z,100680.96
2022-11-04T08:44:44.059Z,100685.60
2022-11-04T08:47:11.899Z,100683.61
2022-11-04T08:49:43.187Z,100682.92
2022-11-04T08:52:11.268Z,100676.52
2022-11-04T08:54:38.984Z,100670.11
2022-11-04T08:57:06.985Z,100664.16
2022-11-04T08:59:34.794Z,100661.93
2022-11-04T09:02:02.551Z,100649.94
2022-11-04T09:04:30.368Z,100640.32
2022-11-04T09:06:59.246Z,100628.52
2022-11-04T09:09:27.064Z,100636.40
2022-11-04T09:11:55.412Z,100629.50
2022-11-04T09:14:24.937Z,100623.19
2022-11-04T09:16:52.708Z,100625.48
2022-11-04T09:19:20.466Z,100626.39
2022-11-04T09:21:48.226Z,100616.42
2022-11-04T09:24:16.173Z,100621.06
2022-11-04T09:26:45.874Z,100621.20
2022-11-04T09:29:13.592Z,100622.99
2022-11-04T09:31:41.679Z,100619.04
2022-11-04T09:34:09.432Z,100616.68
2022-11-04T09:36:37.232Z,100624.53
2022-11-04T09:39:05.676Z,100612.82
2022-11-04T09:41:55.311Z,100609.26
2022-11-04T09:44:24.849Z,100600.43
2022-11-04T09:46:54.056Z,100610.83
2022-11-04T09:49:21.978Z,100611.02
2022-11-04T09:51:54.897Z,100601.94
2022-11-04T09:54:25.739Z,100601.80
2022-11-04T09:56:54.247Z,100597.88
2022-11-04T09:59:30.272Z,100608.31
2022-11-04T10:02:01.450Z,100606.61
2022-11-04T10:04:47.792Z,100602.79
2022-11-04T10:07:32.517Z,100603.83
2022-11-04T10:10:12.325Z,100599.62
2022-11-04T10:12:54.765Z,100597.42
2022-11-04T10:15:41.421Z,100599.65
2022-11-04T10:18:30.611Z,100595.82
2022-11-04T10:21:23.620Z,100597.45
2022-11-04T10:24:05.459Z,100596.87
2022-11-04T10:26:53.755Z,100597.78
2022-11-04T10:29:32.126Z,100596.48
2022-11-04T10:31:59.917Z,100588.89
2022-11-04T10:34:40.854Z,100589.15
2022-11-04T10:37:11.831Z,100588.53
2022-11-04T10:39:43.550Z,100586.24
2022-11-04T10:42:13.719Z,100579.02
2022-11-04T10:44:41.552Z,100573.00
2022-11-04T10:47:17.989Z,100573.95
2022-11-04T10:50:26.615Z,100570.45
2022-11-04T10:52:43.659Z,100566.36
2022-11-04T10:55:28.050Z,100566.85
2022-11-04T10:57:59.137Z,100570.05
2022-11-04T11:00:35.080Z,100568.39
2022-11-04T11:03:02.950Z,100563.98
2022-11-04T11:05:30.768Z,100564.79
2022-11-04T11:07:59.640Z,100561.66
2022-11-04T11:10:30.224Z,100558.98
2022-11-04T11:12:59.032Z,100560.51
2022-11-04T11:15:27.360Z,100558.84
2022-11-04T11:18:01.113Z,100556.69
2022-11-04T11:20:28.992Z,100548.34
2022-11-04T11:23:03.534Z,100546.77
2022-11-04T11:25:32.943Z,100544.36
2022-11-04T11:28:26.768Z,100537.69
2022-11-04T11:31:05.413Z,100536.09
2022-11-04T11:33:37.486Z,100528.40
2022-11-04T11:36:15.867Z,100533.80
2022-11-04T11:39:06.989Z,100536.18
2022-11-04T11:41:40.986Z,100533.41
2022-11-04T11:44:39.782Z,100529.09
2022-11-04T11:47:09.001Z,100530.66
2022-11-04T11:49:39.198Z,100520.36
2022-11-04T11:52:31.087Z,100523.40
2022-11-04T11:55:18.993Z,100537.03
2022-11-04T12:01:03.138Z,100527.88
2022-11-04T12:09:57.761Z,100532.81
2022-11-04T12:12:37.366Z,100533.53
2022-11-04T12:15:26.710Z,100537.46
2022-11-04T12:17:54.429Z,100535.04
2022-11-04T12:21:07.292Z,100532.91
2022-11-04T12:23:45.171Z,100535.50
2022-11-04T12:26:35.033Z,100529.52
2022-11-04T12:29:21.501Z,100532.91
2022-11-04T12:32:11.375Z,100536.77
2022-11-04T12:35:49.945Z,100535.66
2022-11-04T12:38:32.777Z,100549.27
2022-11-04T12:42:06.428Z,100539.42
2022-11-04T12:44:31.268Z,100544.26
2022-11-04T12:47:40.552Z,100547.27
2022-11-04T12:50:19.520Z,100551.65
2022-11-04T12:52:56.970Z,100539.52
2022-11-04T12:55:42.541Z,100542.98
2022-11-04T12:58:33.549Z,100546.16
2022-11-04T13:01:11.038Z,100548.84
2022-11-04T13:03:57.491Z,100555.70
2022-11-04T13:06:44.174Z,100547.92
2022-11-04T13:09:31.632Z,100554.04
2022-11-04T13:12:05.023Z,100547.92
2022-11-04T13:14:52.664Z,100551.26
2022-11-04T13:17:27.355Z,100552.01
2022-11-04T13:19:59.862Z,100553.19
2022-11-04T13:22:33.939Z,100545.34
2022-11-04T13:25:13.745Z,100541.19
2022-11-04T13:27:46.170Z,100539.26
2022-11-04T13:30:23.201Z,100534.26
2022-11-04T13:32:59.916Z,100540.27
2022-11-04T13:35:42.352Z,100541.19
2022-11-04T13:38:15.404Z,100537.03
2022-11-04T13:41:08.894Z,100538.60
2022-11-04T13:43:39.395Z,100545.44
2022-11-04T13:46:09.857Z,100547.89
2022-11-04T13:48:39.298Z,100538.73
2022-11-04T13:51:08.654Z,100537.52
2022-11-04T13:53:42.600Z,100536.77
2022-11-04T13:56:32.350Z,100535.46
2022-11-04T13:59:02.211Z,100538.34
2022-11-04T14:01:34.371Z,100538.44
2022-11-04T14:04:31.558Z,100543.21
2022-11-04T14:07:05.862Z,100553.58
2022-11-04T14:09:35.024Z,100552.92
2022-11-04T14:12:11.955Z,100554.20
2022-11-04T14:14:43.359Z,100556.59
2022-11-04T14:17:35.883Z,100557.27
2022-11-04T14:20:07.186Z,100554.16
2022-11-04T14:22:49.263Z,100556.55
2022-11-04T14:25:27.556Z,100569.86
2022-11-04T14:28:00.340Z,100564.86
2022-11-04T14:30:47.230Z,100567.96
2022-11-04T14:33:36.610Z,100559.98
2022-11-04T14:36:22.745Z,100557.50
2022-11-04T14:39:01.694Z,100561.46
2022-11-04T14:41:29.298Z,100566.36
2022-11-04T14:43:59.169Z,100571.73
2022-11-04T14:46:29.524Z,100571.17
2022-11-04T14:48:58.978Z,100571.10
2022-11-04T14:51:32.076Z,100580.84
2022-11-04T14:54:12.151Z,100583.37
2022-11-04T14:56:39.898Z,100589.19
2022-11-04T14:59:08.089Z,100595.40
2022-11-04T15:01:39.870Z,100585.59
2022-11-04T15:04:22.401Z,100591.80
2022-11-04T15:07:03.113Z,100597.42
2022-11-04T15:09:36.818Z,100588.83
2022-11-04T15:12:31.216Z,100581.44
2022-11-04T15:14:59.295Z,100590.66
2022-11-04T15:17:29.725Z,100596.31
2022-11-04T15:19:58.794Z,100590.59
2022-11-04T15:22:26.517Z,100595.56
2022-11-04T15:24:54.321Z,100597.59
2022-11-04T15:27:26.911Z,100597.59
2022-11-04T15:29:55.997Z,100602.75
2022-11-04T15:32:23.735Z,100602.27
2022-11-04T15:34:51.518Z,100596.25
2022-11-04T15:37:19.384Z,100607.23
2022-11-04T15:39:48.688Z,100603.90
2022-11-04T15:42:40.834Z,100607.49
2022-11-04T15:45:38.326Z,100614.23
2022-11-04T15:48:39.120Z,100612.79
2022-11-04T15:51:26.073Z,100621.84
2022-11-04T15:54:04.435Z,100624.86
2022-11-04T15:56:40.537Z,100626.20
2022-11-04T15:59:10.605Z,100632.54
2022-11-04T16:01:48.049Z,100633.52
2022-11-04T16:04:16.617Z,100639.11
2022-11-04T16:06:45.262Z,100649.38
2022-11-04T16:09:24.004Z,100641.04
2022-11-04T16:12:16.579Z,100642.97
2022-11-04T16:14:52.017Z,100651.41
2022-11-04T16:17:20.376Z,100654.97
2022-11-04T16:19:49.517Z,100659.16
2022-11-04T16:22:45.960Z,100659.02
2022-11-04T16:25:21.147Z,100663.11
2022-11-04T16:27:48.968Z,100662.62
2022-11-04T16:30:20.988Z,100660.95
2022-11-04T16:32:49.688Z,100662.49
2022-11-04T16:35:22.985Z,100677.63
2022-11-04T16:37:51.966Z,100671.77
2022-11-04T16:40:20.672Z,100675.38
2022-11-04T16:42:48.792Z,100686.20
2022-11-04T16:45:30.845Z,100684.04
2022-11-04T16:48:03.662Z,100691.55
2022-11-04T16:50:33.151Z,100684.66
2022-11-04T16:53:00.930Z,100691.55
2022-11-04T16:55:28.772Z,100699.99
2022-11-04T16:58:00.931Z,100706.79
2022-11-04T17:00:28.824Z,100712.38
2022-11-04T17:02:56.979Z,100718.92
2022-11-04T17:05:24.827Z,100728.54
2022-11-04T17:07:55.444Z,100729.26
2022-11-04T17:10:26.496Z,100738.31
2022-11-04T17:12:54.399Z,100730.23
2022-11-04T17:15:22.250Z,100736.77
2022-11-04T17:17:50.100Z,100737.27
2022-11-04T17:20:18.738Z,100743.31
2022-11-04T17:22:47.906Z,100756.39
2022-11-04T17:25:20.981Z,100752.37
2022-11-04T17:27:49.463Z,100762.12
2022-11-04T17:30:18.164Z,100758.68
2022-11-04T17:32:46.303Z,100760.58
2022-11-04T17:35:14.096Z,100770.35
2022-11-04T17:37:42.051Z,100772.84
2022-11-04T17:40:13.208Z,100778.53
2022-11-04T17:42:59.432Z,100779.41
2022-11-04T17:45:27.215Z,100786.27
2022-11-04T17:47:55.041Z,100792.81
2022-11-04T17:50:23.050Z,100792.00
2022-11-04T17:52:50.824Z,100788.80
2022-11-04T17:55:23.164Z,100800.56
2022-11-04T17:57:54.045Z,100801.38
2022-11-04T18:00:25.450Z,100807.95
2022-11-04T18:02:53.335Z,100810.34
2022-11-04T18:05:21.521Z,100817.24
2022-11-04T18:07:49.261Z,100817.57
2022-11-04T18:10:17.082Z,100823.16
2022-11-04T18:12:45.054Z,100823.52
2022-11-04T18:15:13.668Z,100827.45
2022-11-04T18:17:42.139Z,100835.02
2022-11-04T18:20:14.187Z,100841.80
2022-11-04T18:22:42.290Z,100835.12
2022-11-04T18:25:10.879Z,100842.68
2022-11-04T18:27:38.750Z,100844.21
2022-11-04T18:30:11.945Z,100849.80
2022-11-04T18:32:39.821Z,100858.24
2022-11-04T18:35:07.978Z,100858.60
2022-11-04T18:37:35.751Z,100865.34
2022-11-04T18:40:03.607Z,100870.21
2022-11-04T18:42:31.418Z,100882.30
2022-11-04T18:44:59.132Z,100884.66
2022-11-04T18:47:26.988Z,100891.04
2022-11-04T18:49:54.883Z,100892.73
2022-11-04T18:52:22.875Z,100897.58
2022-11-04T18:54:50.716Z,100893.06
2022-11-04T18:57:18.596Z,100892.24
2022-11-04T18:59:46.942Z,100895.29
2022-11-04T19:02:21.440Z,100905.03
2022-11-04T19:04:49.355Z,100909.77
2022-11-04T19:07:17.206Z,100917.98
2022-11-04T19:09:47.036Z,100915.49
2022-11-04T19:12:34.483Z,100931.91
2022-11-04T19:15:02.378Z,100925.34
2022-11-04T19:17:30.194Z,100938.31
2022-11-04T19:19:57.982Z,100930.60
2022-11-04T19:22:25.765Z,100937.14
2022-11-04T19:24:54.211Z,100937.63
2022-11-04T19:27:24.058Z,100936.78
2022-11-04T19:29:52.521Z,100939.13
2022-11-04T19:32:20.393Z,100946.39
2022-11-04T19:34:48.315Z,100951.27
2022-11-04T19:37:16.193Z,100960.16
2022-11-04T19:39:44.117Z,100968.00
2022-11-04T19:42:31.220Z,100970.88
2022-11-04T19:44:59.116Z,100972.91
2022-11-04T19:47:31.898Z,100975.75
2022-11-04T19:49:59.692Z,100983.80
2022-11-04T19:52:27.477Z,100991.55
2022-11-04T19:54:55.773Z,100991.91
2022-11-04T19:57:23.678Z,100998.09
2022-11-04T19:59:53.417Z,100996.25
2022-11-04T20:02:21.827Z,100997.46
2022-11-04T20:04:51.223Z,101008.22
2022-11-04T20:07:19.043Z,101004.52
2022-11-04T20:09:46.902Z,101007.01
2022-11-04T20:12:33.515Z,101014.40
2022-11-04T20:15:01.471Z,101020.45
2022-11-04T20:17:29.548Z,101021.13
2022-11-04T20:19:57.590Z,101015.45
2022-11-04T20:22:33.142Z,101025.19
2022-11-04T20:25:01.085Z,101030.39
2022-11-04T20:27:28.922Z,101039.28
2022-11-04T20:29:56.948Z,101038.43
2022-11-04T20:32:24.827Z,101053.05
2022-11-04T20:34:52.632Z,101059.42
2022-11-04T20:40:10.671Z,101056.25
2022-11-04T20:42:38.579Z,101063.97
2022-11-04T20:45:06.898Z,101065.47
2022-11-04T20:47:34.807Z,101067.17
2022-11-04T20:50:02.590Z,101075.73
2022-11-04T20:52:30.642Z,101079.07
2022-11-04T20:54:58.498Z,101073.71
2022-11-04T20:57:26.365Z,101079.40
2022-11-04T20:59:54.591Z,101088.29
2022-11-04T21:02:24.107Z,101096.86
2022-11-04T21:04:52.985Z,101097.22
2022-11-04T21:07:21.228Z,101103.40
2022-11-04T21:09:52.238Z,101105.42
2022-11-04T21:12:20.788Z,101116.34
2022-11-04T21:14:51.667Z,101115.49
2022-11-04T21:17:19.815Z,101118.02
2022-11-04T21:19:47.746Z,101118.34
2022-11-04T21:22:15.598Z,101124.55
2022-11-04T21:24:43.426Z,101117.85
2022-11-04T21:27:11.274Z,101122.23
2022-11-04T21:29:39.128Z,101133.64
2022-11-04T21:32:07.365Z,101133.94
2022-11-04T21:34:35.163Z,101134.13
2022-11-04T21:37:02.911Z,101144.37
2022-11-04T21:39:30.873Z,101136.98
2022-11-04T21:41:58.698Z,101141.36
2022-11-04T21:44:26.545Z,101143.02
2022-11-04T21:46:54.847Z,101145.05
2022-11-04T21:49:22.710Z,101156.14
2022-11-04T21:51:50.581Z,101156.43
2022-11-04T21:54:18.746Z,101161.30
2022-11-04T21:56:47.780Z,101166.17
2022-11-04T21:59:18.523Z,101176.57
2022-11-04T22:01:47.026Z,101176.24
2022-11-04T22:04:14.984Z,101172.39
2022-11-04T22:06:42.808Z,101170.39
2022-11-04T22:09:10.622Z,101182.46
2022-11-04T22:11:40.516Z,101180.10
2022-11-04T22:14:09.892Z,101176.60
2022-11-04T22:16:39.763Z,101174.41
2022-11-04T22:19:09.289Z,101179.77
2022-11-04T22:21:39.975Z,101176.41
2022-11-04T22:24:08.102Z,101189.65
2022-11-04T22:26:36.016Z,101184.95
2022-11-04T22:29:03.805Z,101185.30
2022-11-04T22:31:36.291Z,101185.63
2022-11-04T22:34:06.133Z,101188.64
2022-11-04T22:36:34.221Z,101188.96
2022-11-04T22:39:02.093Z,101184.45
2022-11-04T22:41:32.164Z,101186.48
2022-11-04T22:44:00.309Z,101191.97
2022-11-04T22:46:29.793Z,101184.78
2022-11-04T22:48:57.668Z,101187.16
2022-11-04T22:51:25.516Z,101193.84
2022-11-04T22:53:58.941Z,101196.19
2022-11-04T22:56:28.354Z,101200.05
2022-11-04T22:58:56.385Z,101197.70
2022-11-04T23:01:24.301Z,101204.73
2022-11-04T23:03:53.150Z,101210.25
2022-11-04T23:06:21.055Z,101206.06
2022-11-04T23:08:49.319Z,101214.44
2022-11-04T23:11:37.752Z,101216.46
2022-11-04T23:14:24.638Z,101221.14
2022-11-04T23:17:14.215Z,101214.27
2022-11-04T23:19:42.602Z,101219.14
2022-11-04T23:22:48.666Z,101216.46
2022-11-04T23:25:16.455Z,101217.28
2022-11-04T23:28:07.516Z,101214.80
2022-11-04T23:30:37.134Z,101218.98
2022-11-04T23:33:07.036Z,101215.28
2022-11-04T23:36:01.427Z,101217.93
2022-11-04T23:38:32.532Z,101220.77
2022-11-04T23:41:20.248Z,101229.15
2022-11-04T23:43:48.119Z,101230.16
2022-11-04T23:46:39.388Z,101236.34
2022-11-04T23:49:47.498Z,101243.01
2022-11-04T23:52:41.666Z,101243.01
2022-11-04T23:55:28.735Z,101242.48
2022-11-04T23:58:14.995Z,101248.05
